sensor_id;sensor_type;location;lat;lon;timestamp;P1;durP1;ratioP1;P2;durP2;ratioP2
5951;SDS011;3001;42.622;23.194;2023-08-12T00:02:24;3.57;;;3.13;;
5951;SDS011;3001;42.622;23.194;2023-08-12T00:04:51;3.27;;;3.17;;
5951;SDS011;3001;42.622;23.194;2023-08-12T00:07:17;4.33;;;3.37;;
5951;SDS011;3001;42.622;23.194;2023-08-12T00:09:44;3.10;;;3.00;;
5951;SDS011;3001;42.622;23.194;2023-08-12T00:12:12;3.63;;;3.50;;
5951;SDS011;3001;42.622;23.194;2023-08-12T00:14:39;3.67;;;3.33;;
5951;SDS011;3001;42.622;23.194;2023-08-12T00:17:05;3.70;;;3.40;;
5951;SDS011;3001;42.622;23.194;2023-08-12T00:19:32;5.10;;;3.50;;
5951;SDS011;3001;42.622;23.194;2023-08-12T00:21:59;3.53;;;3.20;;
5951;SDS011;3001;42.622;23.194;2023-08-12T00:24:25;3.70;;;3.40;;
5951;SDS011;3001;42.622;23.194;2023-08-12T00:26:52;3.00;;;2.90;;
5951;SDS011;3001;42.622;23.194;2023-08-12T00:29:20;3.30;;;3.20;;
5951;SDS011;3001;42.622;23.194;2023-08-12T00:31:47;3.70;;;3.50;;
5951;SDS011;3001;42.622;23.194;2023-08-12T00:34:14;3.57;;;3.37;;
5951;SDS011;3001;42.622;23.194;2023-08-12T00:36:41;3.20;;;3.10;;
5951;SDS011;3001;42.622;23.194;2023-08-12T00:39:07;5.63;;;3.50;;
5951;SDS011;3001;42.622;23.194;2023-08-12T00:41:34;3.77;;;3.57;;
5951;SDS011;3001;42.622;23.194;2023-08-12T00:44:01;3.50;;;3.20;;
5951;SDS011;3001;42.622;23.194;2023-08-12T00:46:29;3.27;;;3.17;;
5951;SDS011;3001;42.622;23.194;2023-08-12T00:48:55;3.37;;;3.27;;
5951;SDS011;3001;42.622;23.194;2023-08-12T00:51:23;3.30;;;3.20;;
5951;SDS011;3001;42.622;23.194;2023-08-12T00:53:49;3.37;;;3.17;;
5951;SDS011;3001;42.622;23.194;2023-08-12T00:56:17;3.40;;;3.30;;
5951;SDS011;3001;42.622;23.194;2023-08-12T00:58:44;3.80;;;3.60;;
5951;SDS011;3001;42.622;23.194;2023-08-12T01:01:11;2.97;;;2.87;;
5951;SDS011;3001;42.622;23.194;2023-08-12T01:03:39;3.47;;;3.27;;
5951;SDS011;3001;42.622;23.194;2023-08-12T01:06:07;3.33;;;3.20;;
5951;SDS011;3001;42.622;23.194;2023-08-12T01:08:34;3.53;;;3.33;;
5951;SDS011;3001;42.622;23.194;2023-08-12T01:11:02;3.23;;;3.13;;
5951;SDS011;3001;42.622;23.194;2023-08-12T01:13:39;3.30;;;3.20;;
5951;SDS011;3001;42.622;23.194;2023-08-12T01:16:13;3.43;;;3.23;;
5951;SDS011;3001;42.622;23.194;2023-08-12T01:18:43;3.57;;;3.43;;
5951;SDS011;3001;42.622;23.194;2023-08-12T01:21:11;3.57;;;3.47;;
5951;SDS011;3001;42.622;23.194;2023-08-12T01:23:44;3.00;;;2.90;;
5951;SDS011;3001;42.622;23.194;2023-08-12T01:26:11;3.50;;;3.30;;
5951;SDS011;3001;42.622;23.194;2023-08-12T01:28:37;4.03;;;3.73;;
5951;SDS011;3001;42.622;23.194;2023-08-12T01:31:06;3.77;;;3.50;;
5951;SDS011;3001;42.622;23.194;2023-08-12T01:33:39;3.43;;;3.17;;
5951;SDS011;3001;42.622;23.194;2023-08-12T01:36:09;3.47;;;3.23;;
5951;SDS011;3001;42.622;23.194;2023-08-12T01:38:39;3.37;;;3.10;;
5951;SDS011;3001;42.622;23.194;2023-08-12T01:41:08;3.67;;;3.50;;
5951;SDS011;3001;42.622;23.194;2023-08-12T01:43:36;2.90;;;2.80;;
5951;SDS011;3001;42.622;23.194;2023-08-12T01:46:03;3.33;;;3.03;;
5951;SDS011;3001;42.622;23.194;2023-08-12T01:48:30;3.53;;;3.23;;
5951;SDS011;3001;42.622;23.194;2023-08-12T01:50:57;3.40;;;3.30;;
5951;SDS011;3001;42.622;23.194;2023-08-12T01:53:23;3.20;;;3.00;;
5951;SDS011;3001;42.622;23.194;2023-08-12T01:55:51;3.90;;;3.60;;
5951;SDS011;3001;42.622;23.194;2023-08-12T01:58:19;3.17;;;3.07;;
5951;SDS011;3001;42.622;23.194;2023-08-12T02:00:46;3.80;;;3.40;;
5951;SDS011;3001;42.622;23.194;2023-08-12T02:03:13;3.60;;;3.40;;
5951;SDS011;3001;42.622;23.194;2023-08-12T02:05:39;3.63;;;3.43;;
5951;SDS011;3001;42.622;23.194;2023-08-12T02:08:06;3.30;;;3.20;;
5951;SDS011;3001;42.622;23.194;2023-08-12T02:10:33;3.63;;;3.53;;
5951;SDS011;3001;42.622;23.194;2023-08-12T02:13:00;4.07;;;3.20;;
5951;SDS011;3001;42.622;23.194;2023-08-12T02:15:29;3.40;;;3.10;;
5951;SDS011;3001;42.622;23.194;2023-08-12T02:17:56;3.30;;;3.20;;
5951;SDS011;3001;42.622;23.194;2023-08-12T02:20:24;3.37;;;3.17;;
5951;SDS011;3001;42.622;23.194;2023-08-12T02:22:50;3.27;;;3.17;;
5951;SDS011;3001;42.622;23.194;2023-08-12T02:25:17;3.03;;;2.93;;
5951;SDS011;3001;42.622;23.194;2023-08-12T02:27:44;4.13;;;3.30;;
5951;SDS011;3001;42.622;23.194;2023-08-12T02:30:11;3.20;;;3.10;;
5951;SDS011;3001;42.622;23.194;2023-08-12T02:32:39;3.20;;;3.10;;
5951;SDS011;3001;42.622;23.194;2023-08-12T02:35:08;3.70;;;3.30;;
5951;SDS011;3001;42.622;23.194;2023-08-12T02:37:35;3.87;;;3.17;;
5951;SDS011;3001;42.622;23.194;2023-08-12T02:40:02;3.10;;;3.00;;
5951;SDS011;3001;42.622;23.194;2023-08-12T02:42:30;3.23;;;3.13;;
5951;SDS011;3001;42.622;23.194;2023-08-12T02:44:56;3.00;;;2.90;;
5951;SDS011;3001;42.622;23.194;2023-08-12T02:47:24;3.00;;;2.90;;
5951;SDS011;3001;42.622;23.194;2023-08-12T02:49:52;3.63;;;3.50;;
5951;SDS011;3001;42.622;23.194;2023-08-12T02:52:19;3.20;;;3.10;;
5951;SDS011;3001;42.622;23.194;2023-08-12T02:54:46;3.20;;;3.10;;
5951;SDS011;3001;42.622;23.194;2023-08-12T02:57:12;3.67;;;3.47;;
5951;SDS011;3001;42.622;23.194;2023-08-12T02:59:39;3.30;;;3.20;;
5951;SDS011;3001;42.622;23.194;2023-08-12T03:02:06;3.20;;;3.10;;
5951;SDS011;3001;42.622;23.194;2023-08-12T03:04:32;10.40;;;3.30;;
5951;SDS011;3001;42.622;23.194;2023-08-12T03:07:01;3.40;;;3.23;;
5951;SDS011;3001;42.622;23.194;2023-08-12T03:09:27;3.10;;;3.00;;
5951;SDS011;3001;42.622;23.194;2023-08-12T03:11:54;3.73;;;3.37;;
5951;SDS011;3001;42.622;23.194;2023-08-12T03:14:21;3.43;;;3.30;;
5951;SDS011;3001;42.622;23.194;2023-08-12T03:16:48;3.27;;;3.17;;
5951;SDS011;3001;42.622;23.194;2023-08-12T03:19:14;3.63;;;3.33;;
5951;SDS011;3001;42.622;23.194;2023-08-12T03:21:41;3.20;;;3.10;;
5951;SDS011;3001;42.622;23.194;2023-08-12T03:24:09;3.17;;;3.00;;
5951;SDS011;3001;42.622;23.194;2023-08-12T03:26:36;3.00;;;2.90;;
5951;SDS011;3001;42.622;23.194;2023-08-12T03:29:02;3.20;;;2.93;;
5951;SDS011;3001;42.622;23.194;2023-08-12T03:31:29;3.20;;;3.10;;
5951;SDS011;3001;42.622;23.194;2023-08-12T03:33:56;3.00;;;2.90;;
5951;SDS011;3001;42.622;23.194;2023-08-12T03:36:23;3.10;;;2.90;;
5951;SDS011;3001;42.622;23.194;2023-08-12T03:38:49;3.57;;;3.27;;
5951;SDS011;3001;42.622;23.194;2023-08-12T03:41:17;3.37;;;3.10;;
5951;SDS011;3001;42.622;23.194;2023-08-12T03:43:44;3.23;;;3.10;;
5951;SDS011;3001;42.622;23.194;2023-08-12T03:46:11;3.17;;;3.07;;
5951;SDS011;3001;42.622;23.194;2023-08-12T03:48:37;3.63;;;3.33;;
5951;SDS011;3001;42.622;23.194;2023-08-12T03:51:04;3.30;;;3.20;;
5951;SDS011;3001;42.622;23.194;2023-08-12T03:53:31;3.93;;;3.20;;
5951;SDS011;3001;42.622;23.194;2023-08-12T03:55:57;3.23;;;3.13;;
5951;SDS011;3001;42.622;23.194;2023-08-12T03:58:25;3.33;;;3.13;;
5951;SDS011;3001;42.622;23.194;2023-08-12T04:00:52;3.23;;;3.13;;
5951;SDS011;3001;42.622;23.194;2023-08-12T04:03:19;3.90;;;3.50;;
5951;SDS011;3001;42.622;23.194;2023-08-12T04:05:48;3.00;;;2.90;;
5951;SDS011;3001;42.622;23.194;2023-08-12T04:08:17;2.90;;;2.80;;
5951;SDS011;3001;42.622;23.194;2023-08-12T04:10:45;3.40;;;3.20;;
5951;SDS011;3001;42.622;23.194;2023-08-12T04:13:12;3.73;;;3.53;;
5951;SDS011;3001;42.622;23.194;2023-08-12T04:15:41;3.33;;;3.23;;
5951;SDS011;3001;42.622;23.194;2023-08-12T04:18:08;3.00;;;2.90;;
5951;SDS011;3001;42.622;23.194;2023-08-12T04:20:35;3.63;;;3.37;;
5951;SDS011;3001;42.622;23.194;2023-08-12T04:23:03;3.70;;;3.50;;
5951;SDS011;3001;42.622;23.194;2023-08-12T04:25:30;3.57;;;3.40;;
5951;SDS011;3001;42.622;23.194;2023-08-12T04:27:56;3.03;;;2.93;;
5951;SDS011;3001;42.622;23.194;2023-08-12T04:30:23;3.37;;;3.20;;
5951;SDS011;3001;42.622;23.194;2023-08-12T04:32:51;5.47;;;2.93;;
5951;SDS011;3001;42.622;23.194;2023-08-12T04:35:18;4.00;;;3.80;;
5951;SDS011;3001;42.622;23.194;2023-08-12T04:37:45;3.03;;;2.93;;
5951;SDS011;3001;42.622;23.194;2023-08-12T04:40:11;3.77;;;3.47;;
5951;SDS011;3001;42.622;23.194;2023-08-12T04:42:38;3.37;;;3.07;;
5951;SDS011;3001;42.622;23.194;2023-08-12T04:45:05;3.50;;;3.30;;
5951;SDS011;3001;42.622;23.194;2023-08-12T04:47:33;3.30;;;3.20;;
5951;SDS011;3001;42.622;23.194;2023-08-12T04:50:01;3.10;;;3.00;;
5951;SDS011;3001;42.622;23.194;2023-08-12T04:52:28;3.07;;;2.97;;
5951;SDS011;3001;42.622;23.194;2023-08-12T04:54:55;3.10;;;2.90;;
5951;SDS011;3001;42.622;23.194;2023-08-12T04:57:22;3.23;;;3.00;;
5951;SDS011;3001;42.622;23.194;2023-08-12T04:59:48;3.37;;;3.17;;
5951;SDS011;3001;42.622;23.194;2023-08-12T05:02:16;3.20;;;3.10;;
5951;SDS011;3001;42.622;23.194;2023-08-12T05:04:46;3.50;;;3.30;;
5951;SDS011;3001;42.622;23.194;2023-08-12T05:07:15;2.83;;;2.63;;
5951;SDS011;3001;42.622;23.194;2023-08-12T05:09:42;3.50;;;3.30;;
5951;SDS011;3001;42.622;23.194;2023-08-12T05:12:09;2.90;;;2.70;;
5951;SDS011;3001;42.622;23.194;2023-08-12T05:14:37;3.30;;;3.20;;
5951;SDS011;3001;42.622;23.194;2023-08-12T05:17:03;3.50;;;3.30;;
5951;SDS011;3001;42.622;23.194;2023-08-12T05:19:30;3.40;;;3.20;;
5951;SDS011;3001;42.622;23.194;2023-08-12T05:21:57;4.03;;;3.73;;
5951;SDS011;3001;42.622;23.194;2023-08-12T05:24:25;4.50;;;3.30;;
5951;SDS011;3001;42.622;23.194;2023-08-12T05:26:52;3.30;;;3.17;;
5951;SDS011;3001;42.622;23.194;2023-08-12T05:29:18;3.57;;;3.37;;
5951;SDS011;3001;42.622;23.194;2023-08-12T05:31:45;7.90;;;3.37;;
5951;SDS011;3001;42.622;23.194;2023-08-12T05:34:12;3.07;;;2.97;;
5951;SDS011;3001;42.622;23.194;2023-08-12T05:36:38;3.40;;;3.20;;
5951;SDS011;3001;42.622;23.194;2023-08-12T05:39:05;12.13;;;3.63;;
5951;SDS011;3001;42.622;23.194;2023-08-12T05:41:33;3.40;;;3.30;;
5951;SDS011;3001;42.622;23.194;2023-08-12T05:44:00;3.53;;;3.33;;
5951;SDS011;3001;42.622;23.194;2023-08-12T05:46:26;3.23;;;3.13;;
5951;SDS011;3001;42.622;23.194;2023-08-12T05:48:53;3.33;;;3.13;;
5951;SDS011;3001;42.622;23.194;2023-08-12T05:51:20;3.07;;;2.97;;
5951;SDS011;3001;42.622;23.194;2023-08-12T05:53:47;3.63;;;3.10;;
5951;SDS011;3001;42.622;23.194;2023-08-12T05:56:15;2.83;;;2.73;;
5951;SDS011;3001;42.622;23.194;2023-08-12T05:58:43;4.17;;;3.20;;
5951;SDS011;3001;42.622;23.194;2023-08-12T06:01:10;3.10;;;2.80;;
5951;SDS011;3001;42.622;23.194;2023-08-12T06:03:36;2.60;;;2.50;;
5951;SDS011;3001;42.622;23.194;2023-08-12T06:06:03;2.60;;;2.50;;
5951;SDS011;3001;42.622;23.194;2023-08-12T06:08:30;2.80;;;2.70;;
5951;SDS011;3001;42.622;23.194;2023-08-12T06:10:56;2.80;;;2.70;;
5951;SDS011;3001;42.622;23.194;2023-08-12T06:13:23;2.93;;;2.73;;
5951;SDS011;3001;42.622;23.194;2023-08-12T06:15:51;2.80;;;2.60;;
5951;SDS011;3001;42.622;23.194;2023-08-12T06:18:18;2.53;;;2.43;;
5951;SDS011;3001;42.622;23.194;2023-08-12T06:20:44;3.00;;;2.70;;
5951;SDS011;3001;42.622;23.194;2023-08-12T06:23:12;3.40;;;3.13;;
5951;SDS011;3001;42.622;23.194;2023-08-12T06:25:38;3.00;;;2.90;;
5951;SDS011;3001;42.622;23.194;2023-08-12T06:28:08;2.93;;;2.83;;
5951;SDS011;3001;42.622;23.194;2023-08-12T06:30:35;2.67;;;2.57;;
5951;SDS011;3001;42.622;23.194;2023-08-12T06:33:03;3.00;;;2.90;;
5951;SDS011;3001;42.622;23.194;2023-08-12T06:35:30;2.67;;;2.47;;
5951;SDS011;3001;42.622;23.194;2023-08-12T06:37:57;3.97;;;3.40;;
5951;SDS011;3001;42.622;23.194;2023-08-12T06:40:23;2.70;;;2.60;;
5951;SDS011;3001;42.622;23.194;2023-08-12T06:42:50;2.90;;;2.80;;
5951;SDS011;3001;42.622;23.194;2023-08-12T06:45:17;3.00;;;2.80;;
5951;SDS011;3001;42.622;23.194;2023-08-12T06:47:43;2.63;;;2.53;;
5951;SDS011;3001;42.622;23.194;2023-08-12T06:50:11;2.60;;;2.50;;
5951;SDS011;3001;42.622;23.194;2023-08-12T06:52:38;2.80;;;2.70;;
5951;SDS011;3001;42.622;23.194;2023-08-12T06:55:05;3.30;;;3.20;;
5951;SDS011;3001;42.622;23.194;2023-08-12T06:57:32;2.90;;;2.70;;
5951;SDS011;3001;42.622;23.194;2023-08-12T06:59:59;3.10;;;2.90;;
5951;SDS011;3001;42.622;23.194;2023-08-12T07:02:25;2.77;;;2.60;;
5951;SDS011;3001;42.622;23.194;2023-08-12T07:04:52;3.10;;;3.00;;
5951;SDS011;3001;42.622;23.194;2023-08-12T07:07:20;3.57;;;2.80;;
5951;SDS011;3001;42.622;23.194;2023-08-12T07:09:47;3.20;;;2.97;;
5951;SDS011;3001;42.622;23.194;2023-08-12T07:12:14;2.83;;;2.73;;
5951;SDS011;3001;42.622;23.194;2023-08-12T07:14:40;2.80;;;2.70;;
5951;SDS011;3001;42.622;23.194;2023-08-12T07:17:07;2.73;;;2.63;;
5951;SDS011;3001;42.622;23.194;2023-08-12T07:19:34;3.10;;;2.83;;
5951;SDS011;3001;42.622;23.194;2023-08-12T07:22:00;2.70;;;2.60;;
5951;SDS011;3001;42.622;23.194;2023-08-12T07:24:28;3.50;;;2.93;;
5951;SDS011;3001;42.622;23.194;2023-08-12T07:26:55;3.43;;;3.00;;
5951;SDS011;3001;42.622;23.194;2023-08-12T07:29:22;2.93;;;2.83;;
5951;SDS011;3001;42.622;23.194;2023-08-12T07:31:48;3.20;;;3.10;;
5951;SDS011;3001;42.622;23.194;2023-08-12T07:34:15;2.80;;;2.70;;
5951;SDS011;3001;42.622;23.194;2023-08-12T07:36:42;3.10;;;2.80;;
5951;SDS011;3001;42.622;23.194;2023-08-12T07:39:08;3.57;;;3.37;;
5951;SDS011;3001;42.622;23.194;2023-08-12T07:41:37;3.27;;;2.70;;
5951;SDS011;3001;42.622;23.194;2023-08-12T07:44:03;3.13;;;2.97;;
5951;SDS011;3001;42.622;23.194;2023-08-12T07:46:31;3.10;;;2.87;;
5951;SDS011;3001;42.622;23.194;2023-08-12T07:48:57;3.30;;;3.10;;
5951;SDS011;3001;42.622;23.194;2023-08-12T07:51:24;3.50;;;3.20;;
5951;SDS011;3001;42.622;23.194;2023-08-12T07:53:51;3.13;;;2.93;;
5951;SDS011;3001;42.622;23.194;2023-08-12T07:56:17;3.43;;;3.20;;
5951;SDS011;3001;42.622;23.194;2023-08-12T07:58:45;2.97;;;2.80;;
5951;SDS011;3001;42.622;23.194;2023-08-12T08:01:12;3.00;;;2.90;;
5951;SDS011;3001;42.622;23.194;2023-08-12T08:03:39;2.90;;;2.70;;
5951;SDS011;3001;42.622;23.194;2023-08-12T08:06:06;2.90;;;2.80;;
5951;SDS011;3001;42.622;23.194;2023-08-12T08:08:33;2.80;;;2.70;;
5951;SDS011;3001;42.622;23.194;2023-08-12T08:11:00;3.30;;;3.10;;
5951;SDS011;3001;42.622;23.194;2023-08-12T08:13:26;3.57;;;3.27;;
5951;SDS011;3001;42.622;23.194;2023-08-12T08:15:55;3.77;;;3.20;;
5951;SDS011;3001;42.622;23.194;2023-08-12T08:18:21;2.77;;;2.67;;
5951;SDS011;3001;42.622;23.194;2023-08-12T08:20:48;3.10;;;2.90;;
5951;SDS011;3001;42.622;23.194;2023-08-12T08:23:15;2.97;;;2.80;;
5951;SDS011;3001;42.622;23.194;2023-08-12T08:25:41;3.30;;;2.87;;
5951;SDS011;3001;42.622;23.194;2023-08-12T08:28:08;3.13;;;2.93;;
5951;SDS011;3001;42.622;23.194;2023-08-12T08:30:35;3.00;;;2.80;;
5951;SDS011;3001;42.622;23.194;2023-08-12T08:33:04;3.03;;;2.83;;
5951;SDS011;3001;42.622;23.194;2023-08-12T08:35:31;7.43;;;3.43;;
5951;SDS011;3001;42.622;23.194;2023-08-12T08:37:58;3.00;;;2.90;;
5951;SDS011;3001;42.622;23.194;2023-08-12T08:40:25;3.40;;;3.20;;
5951;SDS011;3001;42.622;23.194;2023-08-12T08:42:52;2.93;;;2.83;;
5951;SDS011;3001;42.622;23.194;2023-08-12T08:45:20;3.30;;;3.10;;
5951;SDS011;3001;42.622;23.194;2023-08-12T08:47:47;3.23;;;3.03;;
5951;SDS011;3001;42.622;23.194;2023-08-12T08:50:17;3.07;;;2.97;;
5951;SDS011;3001;42.622;23.194;2023-08-12T08:52:44;3.23;;;2.53;;
5951;SDS011;3001;42.622;23.194;2023-08-12T08:55:11;4.43;;;4.13;;
5951;SDS011;3001;42.622;23.194;2023-08-12T08:57:39;3.50;;;3.30;;
5951;SDS011;3001;42.622;23.194;2023-08-12T09:00:09;4.80;;;3.60;;
5951;SDS011;3001;42.622;23.194;2023-08-12T09:02:37;3.33;;;3.13;;
5951;SDS011;3001;42.622;23.194;2023-08-12T09:05:05;3.53;;;3.33;;
5951;SDS011;3001;42.622;23.194;2023-08-12T09:07:34;4.57;;;2.97;;
5951;SDS011;3001;42.622;23.194;2023-08-12T09:10:01;3.27;;;3.07;;
5951;SDS011;3001;42.622;23.194;2023-08-12T09:12:30;3.37;;;2.93;;
5951;SDS011;3001;42.622;23.194;2023-08-12T09:14:57;3.80;;;3.57;;
5951;SDS011;3001;42.622;23.194;2023-08-12T09:17:24;3.47;;;3.37;;
5951;SDS011;3001;42.622;23.194;2023-08-12T09:19:51;3.47;;;3.07;;
5951;SDS011;3001;42.622;23.194;2023-08-12T09:22:18;3.77;;;3.57;;
5951;SDS011;3001;42.622;23.194;2023-08-12T09:24:46;3.80;;;3.47;;
5951;SDS011;3001;42.622;23.194;2023-08-12T09:27:16;2.80;;;2.70;;
5951;SDS011;3001;42.622;23.194;2023-08-12T09:29:44;4.40;;;2.90;;
5951;SDS011;3001;42.622;23.194;2023-08-12T09:32:11;2.90;;;2.80;;
5951;SDS011;3001;42.622;23.194;2023-08-12T09:34:43;3.00;;;2.90;;
5951;SDS011;3001;42.622;23.194;2023-08-12T09:37:12;4.30;;;3.08;;
5951;SDS011;3001;42.622;23.194;2023-08-12T09:39:39;2.88;;;2.67;;
5951;SDS011;3001;42.622;23.194;2023-08-12T09:42:07;4.10;;;3.80;;
5951;SDS011;3001;42.622;23.194;2023-08-12T09:44:35;3.20;;;3.00;;
5951;SDS011;3001;42.622;23.194;2023-08-12T09:47:01;3.55;;;3.03;;
5951;SDS011;3001;42.622;23.194;2023-08-12T09:49:28;3.00;;;2.90;;
5951;SDS011;3001;42.622;23.194;2023-08-12T09:51:55;2.83;;;2.63;;
5951;SDS011;3001;42.622;23.194;2023-08-12T09:54:22;2.58;;;2.47;;
5951;SDS011;3001;42.622;23.194;2023-08-12T09:56:49;3.13;;;3.03;;
5951;SDS011;3001;42.622;23.194;2023-08-12T09:59:26;2.92;;;2.83;;
5951;SDS011;3001;42.622;23.194;2023-08-12T10:01:57;3.05;;;2.95;;
5951;SDS011;3001;42.622;23.194;2023-08-12T10:04:26;3.20;;;3.03;;
5951;SDS011;3001;42.622;23.194;2023-08-12T10:06:55;2.70;;;2.50;;
5951;SDS011;3001;42.622;23.194;2023-08-12T10:09:21;4.00;;;2.67;;
5951;SDS011;3001;42.622;23.194;2023-08-12T10:11:51;2.40;;;2.30;;
5951;SDS011;3001;42.622;23.194;2023-08-12T10:14:19;2.80;;;2.70;;
5951;SDS011;3001;42.622;23.194;2023-08-12T10:16:48;2.92;;;2.83;;
5951;SDS011;3001;42.622;23.194;2023-08-12T10:19:16;2.58;;;2.47;;
5951;SDS011;3001;42.622;23.194;2023-08-12T10:21:43;2.70;;;2.53;;
5951;SDS011;3001;42.622;23.194;2023-08-12T10:24:10;2.65;;;2.47;;
5951;SDS011;3001;42.622;23.194;2023-08-12T10:26:38;3.28;;;3.10;;
5951;SDS011;3001;42.622;23.194;2023-08-12T10:29:06;2.38;;;2.28;;
5951;SDS011;3001;42.622;23.194;2023-08-12T10:31:33;2.50;;;2.40;;
5951;SDS011;3001;42.622;23.194;2023-08-12T10:34:02;2.70;;;2.60;;
5951;SDS011;3001;42.622;23.194;2023-08-12T10:36:29;2.40;;;2.30;;
5951;SDS011;3001;42.622;23.194;2023-08-12T10:38:59;2.90;;;2.70;;
5951;SDS011;3001;42.622;23.194;2023-08-12T10:41:26;2.90;;;2.80;;
5951;SDS011;3001;42.622;23.194;2023-08-12T10:43:54;3.85;;;2.88;;
5951;SDS011;3001;42.622;23.194;2023-08-12T10:46:21;3.10;;;3.00;;
5951;SDS011;3001;42.622;23.194;2023-08-12T10:48:56;2.78;;;2.60;;
5951;SDS011;3001;42.622;23.194;2023-08-12T10:54:20;2.17;;;1.98;;
5951;SDS011;3001;42.622;23.194;2023-08-12T10:57:06;2.53;;;2.42;;
5951;SDS011;3001;42.622;23.194;2023-08-12T10:59:52;2.60;;;2.50;;
5951;SDS011;3001;42.622;23.194;2023-08-12T11:02:22;2.72;;;2.63;;
5951;SDS011;3001;42.622;23.194;2023-08-12T11:04:53;2.90;;;2.70;;
5951;SDS011;3001;42.622;23.194;2023-08-12T11:07:22;3.05;;;2.78;;
5951;SDS011;3001;42.622;23.194;2023-08-12T11:09:58;2.42;;;2.33;;
5951;SDS011;3001;42.622;23.194;2023-08-12T11:12:29;2.50;;;2.40;;
5951;SDS011;3001;42.622;23.194;2023-08-12T11:14:57;2.30;;;2.20;;
5951;SDS011;3001;42.622;23.194;2023-08-12T11:17:31;3.22;;;2.65;;
5951;SDS011;3001;42.622;23.194;2023-08-12T11:19:59;2.85;;;2.58;;
5951;SDS011;3001;42.622;23.194;2023-08-12T11:22:28;2.47;;;2.17;;
5951;SDS011;3001;42.622;23.194;2023-08-12T11:24:57;2.83;;;2.55;;
5951;SDS011;3001;42.622;23.194;2023-08-12T11:27:23;2.00;;;2.00;;
5951;SDS011;3001;42.622;23.194;2023-08-12T11:29:50;2.35;;;2.25;;
5951;SDS011;3001;42.622;23.194;2023-08-12T11:32:17;2.60;;;2.40;;
5951;SDS011;3001;42.622;23.194;2023-08-12T11:34:44;2.15;;;2.05;;
5951;SDS011;3001;42.622;23.194;2023-08-12T11:37:11;2.30;;;2.20;;
5951;SDS011;3001;42.622;23.194;2023-08-12T11:39:38;2.50;;;2.40;;
5951;SDS011;3001;42.622;23.194;2023-08-12T11:42:06;2.83;;;2.63;;
5951;SDS011;3001;42.622;23.194;2023-08-12T11:44:33;2.50;;;2.20;;
5951;SDS011;3001;42.622;23.194;2023-08-12T11:46:59;2.05;;;2.00;;
5951;SDS011;3001;42.622;23.194;2023-08-12T11:49:26;2.40;;;2.30;;
5951;SDS011;3001;42.622;23.194;2023-08-12T11:51:52;2.35;;;2.25;;
5951;SDS011;3001;42.622;23.194;2023-08-12T11:54:19;2.67;;;2.00;;
5951;SDS011;3001;42.622;23.194;2023-08-12T11:56:46;2.25;;;2.15;;
5951;SDS011;3001;42.622;23.194;2023-08-12T11:59:14;2.38;;;2.28;;
5951;SDS011;3001;42.622;23.194;2023-08-12T12:01:41;3.17;;;2.90;;
5951;SDS011;3001;42.622;23.194;2023-08-12T12:04:14;3.08;;;2.10;;
5951;SDS011;3001;42.622;23.194;2023-08-12T12:06:42;1.80;;;1.80;;
5951;SDS011;3001;42.622;23.194;2023-08-12T12:09:09;2.38;;;2.25;;
5951;SDS011;3001;42.622;23.194;2023-08-12T12:11:36;2.22;;;2.08;;
5951;SDS011;3001;42.622;23.194;2023-08-12T12:14:03;2.33;;;2.22;;
5951;SDS011;3001;42.622;23.194;2023-08-12T12:16:39;1.90;;;1.90;;
5951;SDS011;3001;42.622;23.194;2023-08-12T12:19:12;2.22;;;2.03;;
5951;SDS011;3001;42.622;23.194;2023-08-12T12:21:41;2.20;;;2.10;;
5951;SDS011;3001;42.622;23.194;2023-08-12T12:24:09;2.20;;;2.10;;
5951;SDS011;3001;42.622;23.194;2023-08-12T12:26:36;2.00;;;1.90;;
5951;SDS011;3001;42.622;23.194;2023-08-12T12:29:03;2.17;;;2.08;;
5951;SDS011;3001;42.622;23.194;2023-08-12T12:31:31;1.70;;;1.70;;
5951;SDS011;3001;42.622;23.194;2023-08-12T12:34:01;2.45;;;1.60;;
5951;SDS011;3001;42.622;23.194;2023-08-12T12:36:29;2.03;;;1.92;;
5951;SDS011;3001;42.622;23.194;2023-08-12T12:38:56;2.20;;;2.00;;
5951;SDS011;3001;42.622;23.194;2023-08-12T12:41:22;2.35;;;2.22;;
5951;SDS011;3001;42.622;23.194;2023-08-12T12:43:49;2.00;;;1.90;;
5951;SDS011;3001;42.622;23.194;2023-08-12T12:46:16;2.45;;;2.35;;
5951;SDS011;3001;42.622;23.194;2023-08-12T12:48:42;3.10;;;2.55;;
5951;SDS011;3001;42.622;23.194;2023-08-12T12:51:11;2.08;;;1.98;;
5951;SDS011;3001;42.622;23.194;2023-08-12T12:53:38;1.90;;;1.80;;
5951;SDS011;3001;42.622;23.194;2023-08-12T12:56:05;5.68;;;2.00;;
5951;SDS011;3001;42.622;23.194;2023-08-12T12:58:32;2.15;;;2.05;;
5951;SDS011;3001;42.622;23.194;2023-08-12T13:00:59;2.35;;;2.10;;
5951;SDS011;3001;42.622;23.194;2023-08-12T13:03:26;2.28;;;2.15;;
5951;SDS011;3001;42.622;23.194;2023-08-12T13:05:53;2.10;;;2.00;;
5951;SDS011;3001;42.622;23.194;2023-08-12T13:08:22;2.22;;;2.13;;
5951;SDS011;3001;42.622;23.194;2023-08-12T13:10:49;2.30;;;2.20;;
5951;SDS011;3001;42.622;23.194;2023-08-12T13:13:16;1.90;;;1.90;;
5951;SDS011;3001;42.622;23.194;2023-08-12T13:15:44;2.28;;;2.17;;
5951;SDS011;3001;42.622;23.194;2023-08-12T13:18:12;2.20;;;2.10;;
5951;SDS011;3001;42.622;23.194;2023-08-12T13:20:38;2.05;;;1.95;;
5951;SDS011;3001;42.622;23.194;2023-08-12T13:23:05;2.00;;;1.90;;
5951;SDS011;3001;42.622;23.194;2023-08-12T13:25:33;2.28;;;2.17;;
5951;SDS011;3001;42.622;23.194;2023-08-12T13:28:00;3.10;;;2.10;;
5951;SDS011;3001;42.622;23.194;2023-08-12T13:30:28;2.30;;;2.20;;
5951;SDS011;3001;42.622;23.194;2023-08-12T13:32:55;2.08;;;1.98;;
5951;SDS011;3001;42.622;23.194;2023-08-12T13:35:22;2.10;;;2.05;;
5951;SDS011;3001;42.622;23.194;2023-08-12T13:37:49;2.40;;;2.30;;
5951;SDS011;3001;42.622;23.194;2023-08-12T13:40:17;2.25;;;2.15;;
5951;SDS011;3001;42.622;23.194;2023-08-12T13:42:45;2.33;;;2.10;;
5951;SDS011;3001;42.622;23.194;2023-08-12T13:45:12;2.08;;;1.98;;
5951;SDS011;3001;42.622;23.194;2023-08-12T13:47:39;2.70;;;2.42;;
5951;SDS011;3001;42.622;23.194;2023-08-12T13:50:06;1.90;;;1.90;;
5951;SDS011;3001;42.622;23.194;2023-08-12T13:52:33;2.00;;;1.90;;
5951;SDS011;3001;42.622;23.194;2023-08-12T13:55:00;2.63;;;2.10;;
5951;SDS011;3001;42.622;23.194;2023-08-12T13:57:27;2.13;;;1.85;;
5951;SDS011;3001;42.622;23.194;2023-08-12T13:59:55;1.98;;;1.88;;
5951;SDS011;3001;42.622;23.194;2023-08-12T14:02:22;2.40;;;2.30;;
5951;SDS011;3001;42.622;23.194;2023-08-12T14:04:48;2.40;;;2.30;;
5951;SDS011;3001;42.622;23.194;2023-08-12T14:07:15;2.00;;;1.73;;
5951;SDS011;3001;42.622;23.194;2023-08-12T14:09:45;1.90;;;1.90;;
5951;SDS011;3001;42.622;23.194;2023-08-12T14:12:12;1.90;;;1.90;;
5951;SDS011;3001;42.622;23.194;2023-08-12T14:14:38;2.00;;;2.00;;
5951;SDS011;3001;42.622;23.194;2023-08-12T14:17:07;2.20;;;2.10;;
5951;SDS011;3001;42.622;23.194;2023-08-12T14:19:38;3.67;;;2.13;;
5951;SDS011;3001;42.622;23.194;2023-08-12T14:22:04;4.53;;;1.90;;
5951;SDS011;3001;42.622;23.194;2023-08-12T14:24:31;3.03;;;2.00;;
5951;SDS011;3001;42.622;23.194;2023-08-12T14:26:58;3.13;;;2.25;;
5951;SDS011;3001;42.622;23.194;2023-08-12T14:29:24;2.38;;;2.28;;
5951;SDS011;3001;42.622;23.194;2023-08-12T14:31:51;2.25;;;1.90;;
5951;SDS011;3001;42.622;23.194;2023-08-12T14:34:20;4.68;;;2.17;;
5951;SDS011;3001;42.622;23.194;2023-08-12T14:36:46;2.00;;;1.90;;
5951;SDS011;3001;42.622;23.194;2023-08-12T14:39:13;2.10;;;1.90;;
5951;SDS011;3001;42.622;23.194;2023-08-12T14:41:39;2.40;;;1.70;;
5951;SDS011;3001;42.622;23.194;2023-08-12T14:44:06;2.20;;;2.10;;
5951;SDS011;3001;42.622;23.194;2023-08-12T14:46:33;1.70;;;1.70;;
5951;SDS011;3001;42.622;23.194;2023-08-12T14:48:59;2.20;;;2.10;;
5951;SDS011;3001;42.622;23.194;2023-08-12T14:51:27;1.88;;;1.88;;
5951;SDS011;3001;42.622;23.194;2023-08-12T14:53:55;2.80;;;1.73;;
5951;SDS011;3001;42.622;23.194;2023-08-12T14:56:22;1.80;;;1.70;;
5951;SDS011;3001;42.622;23.194;2023-08-12T14:58:49;1.70;;;1.70;;
5951;SDS011;3001;42.622;23.194;2023-08-12T15:01:15;2.10;;;2.00;;
5951;SDS011;3001;42.622;23.194;2023-08-12T15:03:42;1.95;;;1.85;;
5951;SDS011;3001;42.622;23.194;2023-08-12T15:06:08;2.00;;;1.73;;